sensor_id;sensor_type;location;lat;lon;timestamp;temperature;humidity
34492;DHT22;20737;49.908;8.126;2023-03-24T00:00:33;12.50;99.90
34492;DHT22;20737;49.908;8.126;2023-03-24T00:03:00;12.40;99.90
34492;DHT22;20737;49.908;8.126;2023-03-24T00:05:27;12.30;99.90
34492;DHT22;20737;49.908;8.126;2023-03-24T00:07:55;12.30;99.90
34492;DHT22;20737;49.908;8.126;2023-03-24T00:10:22;12.20;99.90
34492;DHT22;20737;49.908;8.126;2023-03-24T00:12:49;12.30;99.90
34492;DHT22;20737;49.908;8.126;2023-03-24T00:15:19;12.20;99.90
34492;DHT22;20737;49.908;8.126;2023-03-24T00:17:47;12.30;99.90
34492;DHT22;20737;49.908;8.126;2023-03-24T00:20:16;12.40;99.90
34492;DHT22;20737;49.908;8.126;2023-03-24T00:22:46;12.30;99.90
34492;DHT22;20737;49.908;8.126;2023-03-24T00:25:18;12.30;99.90
34492;DHT22;20737;49.908;8.126;2023-03-24T00:27:46;12.20;99.90
34492;DHT22;20737;49.908;8.126;2023-03-24T00:30:15;12.10;99.90
34492;DHT22;20737;49.908;8.126;2023-03-24T00:32:44;12.00;99.90
34492;DHT22;20737;49.908;8.126;2023-03-24T00:35:13;11.90;99.90
34492;DHT22;20737;49.908;8.126;2023-03-24T00:37:43;12.00;99.90
34492;DHT22;20737;49.908;8.126;2023-03-24T00:40:14;12.10;99.90
34492;DHT22;20737;49.908;8.126;2023-03-24T00:42:44;12.20;99.90
34492;DHT22;20737;49.908;8.126;2023-03-24T00:45:13;12.10;99.90
34492;DHT22;20737;49.908;8.126;2023-03-24T00:47:42;12.10;99.90
34492;DHT22;20737;49.908;8.126;2023-03-24T00:50:12;12.00;99.90
34492;DHT22;20737;49.908;8.126;2023-03-24T00:52:40;11.90;99.90
34492;DHT22;20737;49.908;8.126;2023-03-24T00:55:10;12.00;99.90
34492;DHT22;20737;49.908;8.126;2023-03-24T00:57:40;11.90;99.90
34492;DHT22;20737;49.908;8.126;2023-03-24T01:00:16;11.80;99.90
34492;DHT22;20737;49.908;8.126;2023-03-24T01:02:46;11.70;99.90
34492;DHT22;20737;49.908;8.126;2023-03-24T01:05:18;11.70;99.90
34492;DHT22;20737;49.908;8.126;2023-03-24T01:07:45;11.70;99.90
34492;DHT22;20737;49.908;8.126;2023-03-24T01:10:18;11.60;99.90
34492;DHT22;20737;49.908;8.126;2023-03-24T01:12:46;11.50;99.90
34492;DHT22;20737;49.908;8.126;2023-03-24T01:15:15;11.60;99.90
34492;DHT22;20737;49.908;8.126;2023-03-24T01:17:43;11.70;99.90
34492;DHT22;20737;49.908;8.126;2023-03-24T01:20:13;11.90;99.90
34492;DHT22;20737;49.908;8.126;2023-03-24T01:22:41;11.90;99.90
34492;DHT22;20737;49.908;8.126;2023-03-24T01:25:11;12.00;99.90
34492;DHT22;20737;49.908;8.126;2023-03-24T01:27:41;12.00;99.90
34492;DHT22;20737;49.908;8.126;2023-03-24T01:30:10;12.00;99.90
34492;DHT22;20737;49.908;8.126;2023-03-24T01:32:38;11.90;99.90
34492;DHT22;20737;49.908;8.126;2023-03-24T01:35:05;11.80;99.90
34492;DHT22;20737;49.908;8.126;2023-03-24T01:37:34;11.80;99.90
34492;DHT22;20737;49.908;8.126;2023-03-24T01:40:00;11.70;99.90
34492;DHT22;20737;49.908;8.126;2023-03-24T01:42:31;11.70;99.90
34492;DHT22;20737;49.908;8.126;2023-03-24T01:45:00;11.70;99.90
34492;DHT22;20737;49.908;8.126;2023-03-24T01:47:27;11.70;99.90
34492;DHT22;20737;49.908;8.126;2023-03-24T01:49:58;11.70;99.90
34492;DHT22;20737;49.908;8.126;2023-03-24T01:52:29;11.70;99.90
34492;DHT22;20737;49.908;8.126;2023-03-24T01:54:59;11.70;99.90
34492;DHT22;20737;49.908;8.126;2023-03-24T01:57:30;11.60;99.90
34492;DHT22;20737;49.908;8.126;2023-03-24T02:00:07;11.70;99.90
34492;DHT22;20737;49.908;8.126;2023-03-24T02:02:35;11.70;99.90
34492;DHT22;20737;49.908;8.126;2023-03-24T02:05:05;11.70;99.90
34492;DHT22;20737;49.908;8.126;2023-03-24T02:07:38;11.70;99.90
34492;DHT22;20737;49.908;8.126;2023-03-24T02:10:10;11.70;99.90
34492;DHT22;20737;49.908;8.126;2023-03-24T02:12:38;11.80;99.90
34492;DHT22;20737;49.908;8.126;2023-03-24T02:15:06;11.80;99.90
34492;DHT22;20737;49.908;8.126;2023-03-24T02:17:49;11.80;99.90
34492;DHT22;20737;49.908;8.126;2023-03-24T02:20:52;11.80;99.90
34492;DHT22;20737;49.908;8.126;2023-03-24T02:23:52;11.80;99.90
34492;DHT22;20737;49.908;8.126;2023-03-24T02:26:51;11.80;99.90
34492;DHT22;20737;49.908;8.126;2023-03-24T02:29:51;11.80;99.90
34492;DHT22;20737;49.908;8.126;2023-03-24T02:32:45;11.80;99.90
34492;DHT22;20737;49.908;8.126;2023-03-24T02:38:30;11.60;99.90
34492;DHT22;20737;49.908;8.126;2023-03-24T02:41:03;11.50;99.90
34492;DHT22;20737;49.908;8.126;2023-03-24T02:43:43;11.40;99.90
34492;DHT22;20737;49.908;8.126;2023-03-24T02:46:16;11.40;99.90
34492;DHT22;20737;49.908;8.126;2023-03-24T02:48:58;11.30;99.90
34492;DHT22;20737;49.908;8.126;2023-03-24T02:51:35;11.40;99.90
34492;DHT22;20737;49.908;8.126;2023-03-24T02:54:08;11.40;99.90
34492;DHT22;20737;49.908;8.126;2023-03-24T02:56:42;11.30;99.90
34492;DHT22;20737;49.908;8.126;2023-03-24T02:59:16;11.30;99.90
34492;DHT22;20737;49.908;8.126;2023-03-24T03:01:45;11.30;99.90
34492;DHT22;20737;49.908;8.126;2023-03-24T03:04:22;11.30;99.90
34492;DHT22;20737;49.908;8.126;2023-03-24T03:06:53;11.30;99.90
34492;DHT22;20737;49.908;8.126;2023-03-24T03:09:22;11.50;99.90
34492;DHT22;20737;49.908;8.126;2023-03-24T03:11:53;11.60;99.90
34492;DHT22;20737;49.908;8.126;2023-03-24T03:14:24;11.70;99.90
34492;DHT22;20737;49.908;8.126;2023-03-24T03:16:56;11.80;99.90
34492;DHT22;20737;49.908;8.126;2023-03-24T03:19:30;12.00;99.90
34492;DHT22;20737;49.908;8.126;2023-03-24T03:22:00;12.40;99.90
34492;DHT22;20737;49.908;8.126;2023-03-24T03:24:32;12.60;99.90
34492;DHT22;20737;49.908;8.126;2023-03-24T03:27:04;12.80;99.90
34492;DHT22;20737;49.908;8.126;2023-03-24T03:29:38;12.90;99.90
34492;DHT22;20737;49.908;8.126;2023-03-24T03:32:08;13.00;99.90
34492;DHT22;20737;49.908;8.126;2023-03-24T03:34:40;13.10;99.90
34492;DHT22;20737;49.908;8.126;2023-03-24T03:37:15;13.20;99.90
34492;DHT22;20737;49.908;8.126;2023-03-24T03:39:48;13.20;99.90
34492;DHT22;20737;49.908;8.126;2023-03-24T03:42:19;13.20;99.90
34492;DHT22;20737;49.908;8.126;2023-03-24T03:44:46;13.20;99.90
34492;DHT22;20737;49.908;8.126;2023-03-24T03:47:13;13.20;99.90
34492;DHT22;20737;49.908;8.126;2023-03-24T03:49:41;13.20;99.90
34492;DHT22;20737;49.908;8.126;2023-03-24T03:52:08;13.10;99.90
34492;DHT22;20737;49.908;8.126;2023-03-24T03:54:36;13.00;99.90
34492;DHT22;20737;49.908;8.126;2023-03-24T03:57:04;13.10;99.90
34492;DHT22;20737;49.908;8.126;2023-03-24T03:59:34;13.20;99.90
34492;DHT22;20737;49.908;8.126;2023-03-24T04:02:09;13.20;99.90
34492;DHT22;20737;49.908;8.126;2023-03-24T04:05:01;13.10;99.90
34492;DHT22;20737;49.908;8.126;2023-03-24T04:07:35;13.10;99.90
34492;DHT22;20737;49.908;8.126;2023-03-24T04:10:14;13.00;99.90
34492;DHT22;20737;49.908;8.126;2023-03-24T04:13:06;13.00;99.90
34492;DHT22;20737;49.908;8.126;2023-03-24T04:15:39;13.00;99.90
34492;DHT22;20737;49.908;8.126;2023-03-24T04:18:20;13.00;99.90
34492;DHT22;20737;49.908;8.126;2023-03-24T04:21:02;13.00;99.90
34492;DHT22;20737;49.908;8.126;2023-03-24T04:23:38;13.00;99.90
34492;DHT22;20737;49.908;8.126;2023-03-24T04:26:15;13.00;99.90
34492;DHT22;20737;49.908;8.126;2023-03-24T04:28:57;13.00;99.90
34492;DHT22;20737;49.908;8.126;2023-03-24T04:31:33;13.00;99.90
34492;DHT22;20737;49.908;8.126;2023-03-24T04:34:04;13.00;99.90
34492;DHT22;20737;49.908;8.126;2023-03-24T04:36:37;13.00;99.90
34492;DHT22;20737;49.908;8.126;2023-03-24T04:39:09;13.00;99.90
34492;DHT22;20737;49.908;8.126;2023-03-24T04:41:38;12.90;99.90
34492;DHT22;20737;49.908;8.126;2023-03-24T04:44:06;12.90;99.90
34492;DHT22;20737;49.908;8.126;2023-03-24T04:46:36;12.90;99.90
34492;DHT22;20737;49.908;8.126;2023-03-24T04:49:03;12.90;99.90
34492;DHT22;20737;49.908;8.126;2023-03-24T04:51:30;12.80;99.90
34492;DHT22;20737;49.908;8.126;2023-03-24T04:53:58;12.80;99.90
34492;DHT22;20737;49.908;8.126;2023-03-24T04:56:29;12.80;99.90
34492;DHT22;20737;49.908;8.126;2023-03-24T04:58:56;12.80;99.90
34492;DHT22;20737;49.908;8.126;2023-03-24T05:01:24;12.80;99.90
34492;DHT22;20737;49.908;8.126;2023-03-24T05:03:56;12.70;99.90
34492;DHT22;20737;49.908;8.126;2023-03-24T05:06:23;12.80;99.90
34492;DHT22;20737;49.908;8.126;2023-03-24T05:08:50;12.80;99.90
34492;DHT22;20737;49.908;8.126;2023-03-24T05:11:17;12.80;99.90
34492;DHT22;20737;49.908;8.126;2023-03-24T05:13:44;12.70;99.90
34492;DHT22;20737;49.908;8.126;2023-03-24T05:16:12;12.70;99.90
34492;DHT22;20737;49.908;8.126;2023-03-24T05:18:38;12.70;99.90
34492;DHT22;20737;49.908;8.126;2023-03-24T05:21:07;12.70;99.90
34492;DHT22;20737;49.908;8.126;2023-03-24T05:23:34;12.70;99.90
34492;DHT22;20737;49.908;8.126;2023-03-24T05:26:00;12.60;99.90
34492;DHT22;20737;49.908;8.126;2023-03-24T05:28:27;12.60;99.90
34492;DHT22;20737;49.908;8.126;2023-03-24T05:30:54;12.60;99.90
34492;DHT22;20737;49.908;8.126;2023-03-24T05:33:21;12.60;99.90
34492;DHT22;20737;49.908;8.126;2023-03-24T05:35:47;12.60;99.90
34492;DHT22;20737;49.908;8.126;2023-03-24T05:38:15;12.70;99.90
34492;DHT22;20737;49.908;8.126;2023-03-24T05:40:42;12.60;99.90
34492;DHT22;20737;49.908;8.126;2023-03-24T05:43:09;12.60;99.90
34492;DHT22;20737;49.908;8.126;2023-03-24T05:45:36;12.60;99.90
34492;DHT22;20737;49.908;8.126;2023-03-24T05:48:03;12.60;99.90
34492;DHT22;20737;49.908;8.126;2023-03-24T05:50:31;12.60;99.90
34492;DHT22;20737;49.908;8.126;2023-03-24T05:52:59;12.60;99.90
34492;DHT22;20737;49.908;8.126;2023-03-24T05:55:31;12.60;99.90
34492;DHT22;20737;49.908;8.126;2023-03-24T05:57:58;12.60;99.90
34492;DHT22;20737;49.908;8.126;2023-03-24T06:00:27;12.60;99.90
34492;DHT22;20737;49.908;8.126;2023-03-24T06:03:00;12.60;99.90
34492;DHT22;20737;49.908;8.126;2023-03-24T06:05:28;12.70;99.90
34492;DHT22;20737;49.908;8.126;2023-03-24T06:07:55;12.70;99.90
34492;DHT22;20737;49.908;8.126;2023-03-24T06:10:23;12.70;99.90
34492;DHT22;20737;49.908;8.126;2023-03-24T06:12:52;12.80;99.90
34492;DHT22;20737;49.908;8.126;2023-03-24T06:15:21;12.80;99.90
34492;DHT22;20737;49.908;8.126;2023-03-24T06:17:48;12.90;99.90
34492;DHT22;20737;49.908;8.126;2023-03-24T06:20:19;12.90;99.90
34492;DHT22;20737;49.908;8.126;2023-03-24T06:22:47;13.00;99.90
34492;DHT22;20737;49.908;8.126;2023-03-24T06:25:17;13.00;99.90
34492;DHT22;20737;49.908;8.126;2023-03-24T06:27:48;13.00;99.90
34492;DHT22;20737;49.908;8.126;2023-03-24T06:30:18;13.00;99.90
34492;DHT22;20737;49.908;8.126;2023-03-24T06:32:44;13.00;99.90
34492;DHT22;20737;49.908;8.126;2023-03-24T06:35:12;13.00;99.90
34492;DHT22;20737;49.908;8.126;2023-03-24T06:37:39;13.00;99.90
34492;DHT22;20737;49.908;8.126;2023-03-24T06:40:07;13.10;99.90
34492;DHT22;20737;49.908;8.126;2023-03-24T06:42:38;13.10;99.90
34492;DHT22;20737;49.908;8.126;2023-03-24T06:45:08;13.20;99.90
34492;DHT22;20737;49.908;8.126;2023-03-24T06:47:37;13.30;99.90
34492;DHT22;20737;49.908;8.126;2023-03-24T06:50:05;13.40;99.90
34492;DHT22;20737;49.908;8.126;2023-03-24T06:52:35;13.50;99.90
34492;DHT22;20737;49.908;8.126;2023-03-24T06:55:03;13.50;99.90
34492;DHT22;20737;49.908;8.126;2023-03-24T06:57:38;13.50;99.90
34492;DHT22;20737;49.908;8.126;2023-03-24T07:00:06;13.40;99.90
34492;DHT22;20737;49.908;8.126;2023-03-24T07:02:34;13.50;99.90
34492;DHT22;20737;49.908;8.126;2023-03-24T07:05:04;13.50;99.90
34492;DHT22;20737;49.908;8.126;2023-03-24T07:07:32;13.50;99.90
34492;DHT22;20737;49.908;8.126;2023-03-24T07:10:04;13.50;99.90
34492;DHT22;20737;49.908;8.126;2023-03-24T07:12:31;13.40;99.90
34492;DHT22;20737;49.908;8.126;2023-03-24T07:14:57;13.40;99.90
34492;DHT22;20737;49.908;8.126;2023-03-24T07:17:24;13.40;99.90
34492;DHT22;20737;49.908;8.126;2023-03-24T07:19:51;13.40;99.90
34492;DHT22;20737;49.908;8.126;2023-03-24T07:22:19;13.40;99.90
34492;DHT22;20737;49.908;8.126;2023-03-24T07:24:46;13.40;99.90
34492;DHT22;20737;49.908;8.126;2023-03-24T07:27:12;13.40;99.90
34492;DHT22;20737;49.908;8.126;2023-03-24T07:29:45;13.40;99.90
34492;DHT22;20737;49.908;8.126;2023-03-24T07:32:12;13.30;99.90
34492;DHT22;20737;49.908;8.126;2023-03-24T07:34:39;13.30;99.90
34492;DHT22;20737;49.908;8.126;2023-03-24T07:37:08;13.30;99.90
34492;DHT22;20737;49.908;8.126;2023-03-24T07:39:36;13.30;99.90
34492;DHT22;20737;49.908;8.126;2023-03-24T07:42:03;13.30;99.90
34492;DHT22;20737;49.908;8.126;2023-03-24T07:44:30;13.30;99.90
34492;DHT22;20737;49.908;8.126;2023-03-24T07:46:57;13.30;99.90
34492;DHT22;20737;49.908;8.126;2023-03-24T07:49:23;13.20;99.90
34492;DHT22;20737;49.908;8.126;2023-03-24T07:51:51;13.10;99.90
34492;DHT22;20737;49.908;8.126;2023-03-24T07:54:18;13.10;99.90
34492;DHT22;20737;49.908;8.126;2023-03-24T07:56:47;13.10;99.90
34492;DHT22;20737;49.908;8.126;2023-03-24T07:59:13;13.10;99.90
34492;DHT22;20737;49.908;8.126;2023-03-24T08:01:41;13.00;99.90
34492;DHT22;20737;49.908;8.126;2023-03-24T08:04:10;13.00;99.90
34492;DHT22;20737;49.908;8.126;2023-03-24T08:06:37;13.00;99.90
34492;DHT22;20737;49.908;8.126;2023-03-24T08:09:04;12.90;99.90
34492;DHT22;20737;49.908;8.126;2023-03-24T08:11:31;12.90;99.90
34492;DHT22;20737;49.908;8.126;2023-03-24T08:13:59;12.90;99.90
34492;DHT22;20737;49.908;8.126;2023-03-24T08:16:26;12.90;99.90
34492;DHT22;20737;49.908;8.126;2023-03-24T08:18:53;12.80;99.90
34492;DHT22;20737;49.908;8.126;2023-03-24T08:21:22;12.80;99.90
34492;DHT22;20737;49.908;8.126;2023-03-24T08:23:49;12.80;99.90
34492;DHT22;20737;49.908;8.126;2023-03-24T08:26:16;12.70;99.90
34492;DHT22;20737;49.908;8.126;2023-03-24T08:28:43;12.70;99.90
34492;DHT22;20737;49.908;8.126;2023-03-24T08:31:11;12.70;99.90
34492;DHT22;20737;49.908;8.126;2023-03-24T08:33:38;12.80;99.90
34492;DHT22;20737;49.908;8.126;2023-03-24T08:36:05;12.80;99.90
34492;DHT22;20737;49.908;8.126;2023-03-24T08:38:33;12.90;99.90
34492;DHT22;20737;49.908;8.126;2023-03-24T08:41:04;12.90;99.90
34492;DHT22;20737;49.908;8.126;2023-03-24T08:43:32;12.90;99.90
34492;DHT22;20737;49.908;8.126;2023-03-24T08:46:01;12.80;99.90
34492;DHT22;20737;49.908;8.126;2023-03-24T08:48:29;12.80;99.90
34492;DHT22;20737;49.908;8.126;2023-03-24T08:50:57;12.80;99.90
34492;DHT22;20737;49.908;8.126;2023-03-24T08:53:24;12.70;99.90
34492;DHT22;20737;49.908;8.126;2023-03-24T08:55:50;12.60;99.90
34492;DHT22;20737;49.908;8.126;2023-03-24T08:58:19;12.60;99.90
34492;DHT22;20737;49.908;8.126;2023-03-24T09:00:47;12.70;99.90
34492;DHT22;20737;49.908;8.126;2023-03-24T09:03:15;12.60;99.90
34492;DHT22;20737;49.908;8.126;2023-03-24T09:05:48;12.60;99.90
34492;DHT22;20737;49.908;8.126;2023-03-24T09:08:16;12.50;99.90
34492;DHT22;20737;49.908;8.126;2023-03-24T09:10:44;12.40;99.90
34492;DHT22;20737;49.908;8.126;2023-03-24T09:13:12;12.40;99.90
34492;DHT22;20737;49.908;8.126;2023-03-24T09:15:39;12.30;99.90
34492;DHT22;20737;49.908;8.126;2023-03-24T09:18:10;12.40;99.90
34492;DHT22;20737;49.908;8.126;2023-03-24T09:20:37;12.40;99.90
34492;DHT22;20737;49.908;8.126;2023-03-24T09:23:05;12.40;99.90
34492;DHT22;20737;49.908;8.126;2023-03-24T09:25:32;12.40;99.90
34492;DHT22;20737;49.908;8.126;2023-03-24T09:27:58;12.40;99.90
34492;DHT22;20737;49.908;8.126;2023-03-24T09:30:26;12.40;99.90
34492;DHT22;20737;49.908;8.126;2023-03-24T09:32:52;12.40;99.90
34492;DHT22;20737;49.908;8.126;2023-03-24T09:35:23;12.30;99.90
34492;DHT22;20737;49.908;8.126;2023-03-24T09:37:50;12.30;99.90
34492;DHT22;20737;49.908;8.126;2023-03-24T09:40:22;12.20;99.90
34492;DHT22;20737;49.908;8.126;2023-03-24T09:42:53;12.20;99.90
34492;DHT22;20737;49.908;8.126;2023-03-24T09:45:23;12.10;99.90
34492;DHT22;20737;49.908;8.126;2023-03-24T09:47:55;12.00;99.90
34492;DHT22;20737;49.908;8.126;2023-03-24T09:50:25;12.00;99.90
34492;DHT22;20737;49.908;8.126;2023-03-24T09:52:55;12.10;99.90
34492;DHT22;20737;49.908;8.126;2023-03-24T09:55:27;12.10;99.90
34492;DHT22;20737;49.908;8.126;2023-03-24T09:57:56;12.10;99.90
34492;DHT22;20737;49.908;8.126;2023-03-24T10:00:26;11.90;99.90
34492;DHT22;20737;49.908;8.126;2023-03-24T10:02:57;12.00;99.90
34492;DHT22;20737;49.908;8.126;2023-03-24T10:05:29;11.90;99.90
34492;DHT22;20737;49.908;8.126;2023-03-24T10:08:08;11.90;99.90
34492;DHT22;20737;49.908;8.126;2023-03-24T10:10:47;12.00;99.90
34492;DHT22;20737;49.908;8.126;2023-03-24T10:13:42;12.30;99.90
34492;DHT22;20737;49.908;8.126;2023-03-24T10:16:17;12.90;99.90
34492;DHT22;20737;49.908;8.126;2023-03-24T10:18:52;14.20;99.90
34492;DHT22;20737;49.908;8.126;2023-03-24T10:21:24;15.00;99.90
34492;DHT22;20737;49.908;8.126;2023-03-24T10:23:57;16.50;99.90
34492;DHT22;20737;49.908;8.126;2023-03-24T10:26:34;18.70;99.90
34492;DHT22;20737;49.908;8.126;2023-03-24T10:29:13;20.60;99.90
34492;DHT22;20737;49.908;8.126;2023-03-24T10:31:46;20.80;99.90
34492;DHT22;20737;49.908;8.126;2023-03-24T10:34:14;20.30;99.90
34492;DHT22;20737;49.908;8.126;2023-03-24T10:36:41;18.90;99.90
34492;DHT22;20737;49.908;8.126;2023-03-24T10:39:13;18.10;99.90
34492;DHT22;20737;49.908;8.126;2023-03-24T10:41:42;17.20;99.90
34492;DHT22;20737;49.908;8.126;2023-03-24T10:44:11;16.50;99.90
34492;DHT22;20737;49.908;8.126;2023-03-24T10:46:44;15.80;99.90
34492;DHT22;20737;49.908;8.126;2023-03-24T10:49:16;15.00;99.90
34492;DHT22;20737;49.908;8.126;2023-03-24T10:51:44;14.60;99.90
34492;DHT22;20737;49.908;8.126;2023-03-24T10:54:16;14.80;99.90
34492;DHT22;20737;49.908;8.126;2023-03-24T10:56:45;15.00;99.90
34492;DHT22;20737;49.908;8.126;2023-03-24T10:59:22;15.60;99.90
34492;DHT22;20737;49.908;8.126;2023-03-24T11:01:56;16.90;99.90
34492;DHT22;20737;49.908;8.126;2023-03-24T11:04:25;16.60;99.90
34492;DHT22;20737;49.908;8.126;2023-03-24T11:06:56;15.80;99.90
34492;DHT22;20737;49.908;8.126;2023-03-24T11:09:25;15.60;99.90
34492;DHT22;20737;49.908;8.126;2023-03-24T11:11:54;17.50;99.90
34492;DHT22;20737;49.908;8.126;2023-03-24T11:14:24;19.00;99.90
34492;DHT22;20737;49.908;8.126;2023-03-24T11:17:01;18.90;99.90
34492;DHT22;20737;49.908;8.126;2023-03-24T11:19:28;18.10;99.90
34492;DHT22;20737;49.908;8.126;2023-03-24T11:22:01;17.90;99.90
34492;DHT22;20737;49.908;8.126;2023-03-24T11:24:29;18.50;99.90
34492;DHT22;20737;49.908;8.126;2023-03-24T11:26:59;19.20;99.90
34492;DHT22;20737;49.908;8.126;2023-03-24T11:29:27;19.40;99.90
34492;DHT22;20737;49.908;8.126;2023-03-24T11:31:56;20.10;99.90
34492;DHT22;20737;49.908;8.126;2023-03-24T11:34:28;19.80;99.90
34492;DHT22;20737;49.908;8.126;2023-03-24T11:37:00;20.10;99.90
34492;DHT22;20737;49.908;8.126;2023-03-24T11:39:30;19.30;99.90
34492;DHT22;20737;49.908;8.126;2023-03-24T11:42:18;20.50;99.90
34492;DHT22;20737;49.908;8.126;2023-03-24T11:44:47;21.60;99.90
34492;DHT22;20737;49.908;8.126;2023-03-24T11:47:22;20.30;99.40
34492;DHT22;20737;49.908;8.126;2023-03-24T11:49:56;19.30;99.90
34492;DHT22;20737;49.908;8.126;2023-03-24T11:52:28;20.10;99.90
34492;DHT22;20737;49.908;8.126;2023-03-24T11:54:59;20.10;99.90
34492;DHT22;20737;49.908;8.126;2023-03-24T11:57:40;20.30;99.90
34492;DHT22;20737;49.908;8.126;2023-03-24T12:00:14;21.40;99.90
34492;DHT22;20737;49.908;8.126;2023-03-24T12:03:01;21.90;99.90
34492;DHT22;20737;49.908;8.126;2023-03-24T12:05:36;21.10;99.90
34492;DHT22;20737;49.908;8.126;2023-03-24T12:08:11;20.80;99.90
34492;DHT22;20737;49.908;8.126;2023-03-24T12:10:54;21.30;99.50
34492;DHT22;20737;49.908;8.126;2023-03-24T12:13:32;21.10;99.10
34492;DHT22;20737;49.908;8.126;2023-03-24T12:16:09;21.60;97.80
34492;DHT22;20737;49.908;8.126;2023-03-24T12:18:49;22.00;96.30
34492;DHT22;20737;49.908;8.126;2023-03-24T12:21:34;21.80;94.10
34492;DHT22;20737;49.908;8.126;2023-03-24T12:24:10;20.90;97.60
34492;DHT22;20737;49.908;8.126;2023-03-24T12:26:41;19.70;98.50
34492;DHT22;20737;49.908;8.126;2023-03-24T12:29:28;19.30;98.60
34492;DHT22;20737;49.908;8.126;2023-03-24T12:32:15;19.00;97.90
34492;DHT22;20737;49.908;8.126;2023-03-24T12:34:58;18.00;99.90
34492;DHT22;20737;49.908;8.126;2023-03-24T12:37:36;18.10;99.90
34492;DHT22;20737;49.908;8.126;2023-03-24T12:40:22;19.80;97.50
34492;DHT22;20737;49.908;8.126;2023-03-24T12:42:56;20.50;95.30
34492;DHT22;20737;49.908;8.126;2023-03-24T12:45:34;20.20;96.30
34492;DHT22;20737;49.908;8.126;2023-03-24T12:48:19;21.00;94.90
34492;DHT22;20737;49.908;8.126;2023-03-24T12:51:01;22.70;91.90
34492;DHT22;20737;49.908;8.126;2023-03-24T12:53:40;23.00;89.20
34492;DHT22;20737;49.908;8.126;2023-03-24T12:56:13;22.60;90.00
34492;DHT22;20737;49.908;8.126;2023-03-24T12:58:45;22.80;88.30
34492;DHT22;20737;49.908;8.126;2023-03-24T13:01:21;22.30;86.40
34492;DHT22;20737;49.908;8.126;2023-03-24T13:03:54;21.70;88.50
34492;DHT22;20737;49.908;8.126;2023-03-24T13:06:26;22.30;88.20
34492;DHT22;20737;49.908;8.126;2023-03-24T13:09:03;21.80;89.10
34492;DHT22;20737;49.908;8.126;2023-03-24T13:11:37;20.80;91.00
34492;DHT22;20737;49.908;8.126;2023-03-24T13:14:13;22.00;86.40
34492;DHT22;20737;49.908;8.126;2023-03-24T13:16:43;22.50;80.00
34492;DHT22;20737;49.908;8.126;2023-03-24T13:19:16;21.70;89.20
34492;DHT22;20737;49.908;8.126;2023-03-24T13:21:45;21.60;86.80
34492;DHT22;20737;49.908;8.126;2023-03-24T13:24:12;20.90;89.10
34492;DHT22;20737;49.908;8.126;2023-03-24T13:26:43;20.30;90.60
34492;DHT22;20737;49.908;8.126;2023-03-24T13:29:22;21.00;90.10
34492;DHT22;20737;49.908;8.126;2023-03-24T13:31:58;21.20;89.20
34492;DHT22;20737;49.908;8.126;2023-03-24T13:34:27;20.60;90.40
34492;DHT22;20737;49.908;8.126;2023-03-24T13:36:59;20.20;90.50
34492;DHT22;20737;49.908;8.126;2023-03-24T13:39:28;20.20;92.30
34492;DHT22;20737;49.908;8.126;2023-03-24T13:41:57;20.60;90.90
34492;DHT22;20737;49.908;8.126;2023-03-24T13:44:26;20.60;92.00
34492;DHT22;20737;49.908;8.126;2023-03-24T13:47:11;22.50;88.60
34492;DHT22;20737;49.908;8.126;2023-03-24T13:49:39;23.30;78.90
34492;DHT22;20737;49.908;8.126;2023-03-24T13:52:20;23.30;83.20
34492;DHT22;20737;49.908;8.126;2023-03-24T13:54:50;25.00;76.20
34492;DHT22;20737;49.908;8.126;2023-03-24T13:57:20;25.30;71.30
34492;DHT22;20737;49.908;8.126;2023-03-24T13:59:59;26.00;68.80
34492;DHT22;20737;49.908;8.126;2023-03-24T14:02:43;25.00;64.50
34492;DHT22;20737;49.908;8.126;2023-03-24T14:05:29;25.50;65.80
34492;DHT22;20737;49.908;8.126;2023-03-24T14:08:10;24.50;66.00
34492;DHT22;20737;49.908;8.126;2023-03-24T14:10:43;25.00;67.20
34492;DHT22;20737;49.908;8.126;2023-03-24T14:13:33;23.20;66.70
34492;DHT22;20737;49.908;8.126;2023-03-24T14:16:26;22.80;69.00
34492;DHT22;20737;49.908;8.126;2023-03-24T14:19:17;22.70;70.90
34492;DHT22;20737;49.908;8.126;2023-03-24T14:21:44;22.70;71.50
34492;DHT22;20737;49.908;8.126;2023-03-24T14:24:22;22.80;69.10
34492;DHT22;20737;49.908;8.126;2023-03-24T14:26:50;23.20;68.10
34492;DHT22;20737;49.908;8.126;2023-03-24T14:29:47;24.10;66.30
34492;DHT22;20737;49.908;8.126;2023-03-24T14:32:16;23.50;65.80
34492;DHT22;20737;49.908;8.126;2023-03-24T14:34:54;21.80;68.60
34492;DHT22;20737;49.908;8.126;2023-03-24T14:37:23;20.60;74.10
34492;DHT22;20737;49.908;8.126;2023-03-24T14:39:51;19.80;80.80
34492;DHT22;20737;49.908;8.126;2023-03-24T14:43:02;19.10;82.90
34492;DHT22;20737;49.908;8.126;2023-03-24T14:45:39;19.20;83.60
34492;DHT22;20737;49.908;8.126;2023-03-24T14:48:20;18.60;79.20
34492;DHT22;20737;49.908;8.126;2023-03-24T14:50:52;18.40;83.10
34492;DHT22;20737;49.908;8.126;2023-03-24T14:53:19;18.40;86.50
34492;DHT22;20737;49.908;8.126;2023-03-24T14:55:47;18.40;84.90
34492;DHT22;20737;49.908;8.126;2023-03-24T14:58:20;18.40;85.50
34492;DHT22;20737;49.908;8.126;2023-03-24T15:00:50;18.30;86.30
34492;DHT22;20737;49.908;8.126;2023-03-24T15:03:20;18.40;85.40
34492;DHT22;20737;49.908;8.126;2023-03-24T15:05:51;18.40;86.40
34492;DHT22;20737;49.908;8.126;2023-03-24T15:08:19;18.60;84.40
34492;DHT22;20737;49.908;8.126;2023-03-24T15:10:49;18.70;83.40
34492;DHT22;20737;49.908;8.126;2023-03-24T15:13:38;18.40;82.60
34492;DHT22;20737;49.908;8.126;2023-03-24T15:16:15;18.60;83.90
34492;DHT22;20737;49.908;8.126;2023-03-24T15:18:45;19.50;82.10
34492;DHT22;20737;49.908;8.126;2023-03-24T15:21:18;19.70;80.00
34492;DHT22;20737;49.908;8.126;2023-03-24T15:23:47;19.80;78.70
34492;DHT22;20737;49.908;8.126;2023-03-24T15:26:15;19.70;79.40
34492;DHT22;20737;49.908;8.126;2023-03-24T15:28:43;19.20;80.10
34492;DHT22;20737;49.908;8.126;2023-03-24T15:31:11;19.00;79.20
34492;DHT22;20737;49.908;8.126;2023-03-24T15:33:40;18.50;80.80
34492;DHT22;20737;49.908;8.126;2023-03-24T15:36:14;18.20;81.80
34492;DHT22;20737;49.908;8.126;2023-03-24T15:38:50;18.10;83.10
34492;DHT22;20737;49.908;8.126;2023-03-24T15:41:18;17.80;82.80
34492;DHT22;20737;49.908;8.126;2023-03-24T15:43:48;17.80;84.70
34492;DHT22;20737;49.908;8.126;2023-03-24T15:46:24;17.80;82.70
34492;DHT22;20737;49.908;8.126;2023-03-24T15:48:51;17.90;82.70
34492;DHT22;20737;49.908;8.126;2023-03-24T15:51:46;18.40;77.40
34492;DHT22;20737;49.908;8.126;2023-03-24T15:54:22;18.50;79.30
34492;DHT22;20737;49.908;8.126;2023-03-24T15:57:11;18.60;80.60
34492;DHT22;20737;49.908;8.126;2023-03-24T15:59:43;18.50;75.80
34492;DHT22;20737;49.908;8.126;2023-03-24T16:02:23;18.00;77.00